Wetterdaten: aktuell Montag, 06.07.2015 00:36
Datum Zeit Temperatur Feuchte Luftdruck Regen Wind Richtung Richtung Taupunkt Windchill
06.07.2015 00:36 17,1 C 83 % 1017,4 hPa 0,0 l/m 5,0 km/h (1 Bft) W-SW 240 14,2 C 17,1 C
05.07.2015 23:36 17,6 C 81 % 1017,4 hPa 0,0 l/m 9,6 km/h (2 Bft) S 175 14,3 C 17,6 C
05.07.2015 22:36 18,4 C 82 % 1016,3 hPa 0,0 l/m 9,6 km/h (2 Bft) S 175 15,3 C 18,4 C
05.07.2015 21:36 19,2 C 79 % 1015,2 hPa 0,7 l/m 9,6 km/h (2 Bft) S 175 15,5 C 19,2 C
05.07.2015 20:36 20,3 C 73 % 1015,1 hPa 0,0 l/m 9,6 km/h (2 Bft) S 175 15,3 C 20,3 C
05.07.2015 19:36 21,5 C 67 % 1014,0 hPa 0,0 l/m 9,6 km/h (2 Bft) S 175 15,1 C 21,5 C
05.07.2015 18:33 23,2 C 63 % 1013,8 hPa 0,0 l/m 9,6 km/h (2 Bft) S 175 15,8 C 23,2 C
05.07.2015 17:18 30,8 C 59 % 1010,2 hPa 0,0 l/m 9,6 km/h (2 Bft) S 190 21,8 C 30,8 C
05.07.2015 16:18 27,8 C 72 % 1010,4 hPa 2,2 l/m 6,8 km/h (2 Bft) S 170 22,3 C 27,8 C
05.07.2015 15:18 32,2 C 54 % 1011,1 hPa 0,0 l/m 6,1 km/h (2 Bft) S-SO45 160 21,7 C 32,2 C
05.07.2015 14:18 30,3 C 60 % 1012,3 hPa 0,0 l/m 13,6 km/h (3 Bft) NO67.5 50 21,6 C 30,3 C
05.07.2015 13:18 27,6 C 65 % 1013,5 hPa 0,0 l/m 23,8 km/h (4 Bft) O-NO22.5 60 20,4 C 27,6 C
05.07.2015 12:18 25,2 C 75 % 1014,7 hPa 0,0 l/m 29,5 km/h (5 Bft) N-NO22.5 25 20,4 C 25,2 C
05.07.2015 11:18 22,7 C 83 % 1014,9 hPa 0,0 l/m 26,5 km/h (4 Bft) NO22.5 45 19,7 C 22,7 C
05.07.2015 10:18 20,6 C 86 % 1017,1 hPa 0,0 l/m 14,5 km/h (3 Bft) O-NO22.5 75 18,2 C 20,6 C
05.07.2015 09:18 20,3 C 86 % 1017,1 hPa 0,0 l/m 3,7 km/h (1 Bft) W-SW67.5 255 17,9 C 20,3 C
05.07.2015 08:18 19,3 C 86 % 1017,2 hPa 0,0 l/m 10,0 km/h (2 Bft) _ 65530 16,9 C 19,3 C
05.07.2015 07:18 18,6 C 83 % 1017,3 hPa 4,7 l/m 9,0 km/h (2 Bft) N-NW67.5 345 15,7 C 18,6 C
05.07.2015 06:18 20,0 C 73 % 1018,2 hPa 0,0 l/m 6,2 km/h (2 Bft) W-NW67.5 295 15,0 C 20,0 C
05.07.2015 05:18 20,0 C 70 % 1018,2 hPa 0,0 l/m 10,0 km/h (2 Bft) N-NW22.5 345 14,4 C 20,0 C
05.07.2015 04:18 20,6 C 66 % 1019,2 hPa 0,0 l/m 7,6 km/h (2 Bft) N-NW22.5 330 14,0 C 20,6 C
05.07.2015 03:18 21,1 C 62 % 1019,1 hPa 0,0 l/m 6,9 km/h (2 Bft) NW67.5 315 13,5 C 21,1 C
05.07.2015 02:18 22,2 C 59 % 1019,0 hPa 0,0 l/m 9,5 km/h (2 Bft) NW22.5 325 13,8 C 22,2 C
05.07.2015 01:18 23,6 C 57 % 1018,9 hPa 0,0 l/m 5,3 km/h (1 Bft) NW 310 14,6 C 23,6 C
05.07.2015 01:00 24,0 C 55 % 1018,9 hPa 0,0 l/m 6,5 km/h (2 Bft) NW 325 14,4 C 24,0 C
_ Min-Zeit 00:36 15:09 17:06 - 05:27 - - 02:45 00:36
Minimum _ 17,1 C 52 % 1010,2 hPa - 0,0 km/h (0 Bft) - - 13,5 C 17,1 C
_ Max-Zeit 15:06 08:03 06:36 06:42 11:39 - - 17:03 15:06
Maximum _ 32,7 C 87 % 1019,2 hPa 3,2 l/m 29,5 km/h
NO (5 Bft)
- - 23,5 C 32,7 C
Durchschnitt _ 22,7 C 71 % 1015,8 hPa #7,6 l/m 11,8 km/h (2 Bft) S - 16,9 C 22,7 C